KGSH/GSH METAR and TAF weather

Enter ICAO airport designator
Station Type Date Time Source
KGSH METAR 2021/07/30 22:53 UTC NOAA

KGSH 302253Z AUTO 30007KT 10SM CLR 22/16 A3009 RMK AO2 SLP187 T02170156


Station Type Date Time Source
KGSH Decoded METAR 2021/07/30 22:53 UTC NOAA

GOSHEN MUNICIPAL AIRPORT, IN, United States (KGSH) 41-32N 85-47W 252M
Jul 30, 2021 - 06:53 PM EDT / 2021.07.30 2253 UTC
Wind: from the WNW (300 degrees) at 8 MPH (7 KT):0
Visibility: 10 mile(s):0
Sky conditions: clear
Temperature: 71.1 F (21.7 C)
Dew Point: 60.1 F (15.6 C)
Relative Humidity: 68%
Pressure (altimeter): 30.09 in. Hg (1018 hPa)
ob: KGSH 302253Z AUTO 30007KT 10SM CLR 22/16 A3009 RMK AO2 SLP187 T02170156
cycle: 23

Station Type Date Time Source
KGSH TAF UTC NOAA

Error!

Example: see airport list